createdAt,value
2018-08-03T00:00:07.430Z,22.60
2018-08-03T00:02:35.639Z,22.50
2018-08-03T00:05:03.844Z,22.50
2018-08-03T00:07:32.086Z,22.50
2018-08-03T00:10:00.287Z,22.50
2018-08-03T00:12:28.540Z,22.50
2018-08-03T00:14:56.746Z,22.50
2018-08-03T00:17:31.510Z,22.50
2018-08-03T00:19:59.710Z,22.50
2018-08-03T00:22:27.922Z,22.60
2018-08-03T00:24:56.110Z,22.60
2018-08-03T00:27:24.337Z,22.70
2018-08-03T00:29:52.530Z,22.70
2018-08-03T00:32:20.721Z,22.80
2018-08-03T00:34:48.909Z,22.80
2018-08-03T00:37:17.127Z,22.70
2018-08-03T00:39:45.321Z,22.80
2018-08-03T00:42:13.526Z,22.80
2018-08-03T00:44:41.750Z,22.70
2018-08-03T00:47:09.959Z,22.70
2018-08-03T00:49:38.158Z,22.70
2018-08-03T00:52:06.406Z,22.70
2018-08-03T00:54:34.627Z,22.70
2018-08-03T00:57:02.827Z,22.70
2018-08-03T00:59:31.009Z,22.70
2018-08-03T01:01:59.211Z,22.70
2018-08-03T01:04:27.404Z,22.60
2018-08-03T01:06:55.595Z,22.60
2018-08-03T01:09:23.809Z,22.50
2018-08-03T01:11:51.997Z,22.40
2018-08-03T01:14:20.182Z,22.40
2018-08-03T01:16:48.387Z,22.40
2018-08-03T01:19:16.572Z,22.40
2018-08-03T01:21:45.396Z,22.30
2018-08-03T01:24:13.606Z,22.20
2018-08-03T01:26:41.813Z,22.20
2018-08-03T01:29:10.013Z,22.20
2018-08-03T01:31:38.224Z,22.20
2018-08-03T01:34:06.438Z,22.20
2018-08-03T01:36:34.646Z,22.20
2018-08-03T01:39:03.046Z,22.20
2018-08-03T01:41:31.226Z,22.20
2018-08-03T01:43:59.406Z,22.10
2018-08-03T01:46:27.590Z,22.00
2018-08-03T01:48:55.767Z,22.00
2018-08-03T01:51:23.951Z,21.90
2018-08-03T01:53:52.143Z,22.00
2018-08-03T01:56:20.346Z,21.90
2018-08-03T01:58:48.536Z,21.90
2018-08-03T02:01:16.705Z,21.80
2018-08-03T02:03:44.939Z,21.80
2018-08-03T02:06:13.124Z,21.80
2018-08-03T02:08:41.318Z,21.70
2018-08-03T02:11:09.514Z,21.70
2018-08-03T02:13:37.703Z,21.70
2018-08-03T02:16:05.878Z,21.80
2018-08-03T02:18:34.083Z,21.60
2018-08-03T02:21:02.248Z,21.60
2018-08-03T02:23:30.427Z,21.60
2018-08-03T02:25:58.735Z,21.50
2018-08-03T02:28:27.083Z,21.50
2018-08-03T02:30:55.309Z,21.50
2018-08-03T02:33:23.630Z,21.50
2018-08-03T02:35:51.818Z,21.50
2018-08-03T02:38:20.033Z,21.40
2018-08-03T02:40:48.232Z,21.50
2018-08-03T02:43:16.443Z,21.60
2018-08-03T02:45:44.642Z,21.60
2018-08-03T02:48:12.855Z,21.60
2018-08-03T02:50:41.053Z,21.50
2018-08-03T02:53:09.280Z,21.50
2018-08-03T02:55:37.472Z,21.50
2018-08-03T02:58:05.702Z,21.50
2018-08-03T03:00:33.945Z,21.50
2018-08-03T03:03:02.171Z,21.50
2018-08-03T03:05:30.376Z,21.40
2018-08-03T03:07:58.578Z,21.50
2018-08-03T03:10:26.790Z,21.40
2018-08-03T03:12:55.000Z,21.50
2018-08-03T03:15:23.211Z,21.50
2018-08-03T03:17:51.407Z,21.50
2018-08-03T03:20:19.623Z,21.40
2018-08-03T03:22:47.813Z,21.40
2018-08-03T03:25:16.146Z,21.40
2018-08-03T03:27:44.375Z,21.40
2018-08-03T03:30:12.590Z,21.30
2018-08-03T03:32:40.847Z,21.20
2018-08-03T03:35:09.024Z,21.20
2018-08-03T03:37:37.235Z,21.10
2018-08-03T03:40:05.458Z,21.10
2018-08-03T03:42:33.663Z,21.20
2018-08-03T03:45:01.880Z,21.10
2018-08-03T03:47:30.078Z,21.10
2018-08-03T03:49:58.293Z,21.30
2018-08-03T03:52:26.503Z,21.20
2018-08-03T03:54:55.084Z,21.10
2018-08-03T03:57:23.281Z,21.20
2018-08-03T03:59:51.487Z,21.20
2018-08-03T04:02:19.684Z,21.00
2018-08-03T04:04:47.905Z,20.90
2018-08-03T04:07:16.102Z,20.80
2018-08-03T04:09:44.330Z,20.80
2018-08-03T04:12:12.555Z,20.80
2018-08-03T04:14:40.766Z,20.80
2018-08-03T04:17:08.971Z,20.70
2018-08-03T04:19:37.315Z,20.60
2018-08-03T04:22:05.510Z,20.60
2018-08-03T04:24:33.736Z,20.60
2018-08-03T04:27:01.935Z,20.60
2018-08-03T04:29:30.191Z,20.60
2018-08-03T04:31:58.414Z,20.60
2018-08-03T04:34:26.639Z,20.70
2018-08-03T04:36:54.871Z,20.70
2018-08-03T04:39:23.098Z,20.80
2018-08-03T04:41:51.325Z,20.80
2018-08-03T04:44:19.562Z,20.80
2018-08-03T04:46:47.804Z,20.80
2018-08-03T04:49:16.003Z,21.00
2018-08-03T04:51:44.242Z,20.90
2018-08-03T04:54:12.464Z,20.90
2018-08-03T04:56:40.694Z,20.80
2018-08-03T04:59:08.902Z,20.90
2018-08-03T05:01:37.119Z,20.90
2018-08-03T05:04:05.330Z,21.00
2018-08-03T05:06:33.663Z,20.90
2018-08-03T05:09:01.854Z,20.90
2018-08-03T05:11:30.071Z,21.00
2018-08-03T05:13:58.274Z,21.00
2018-08-03T05:16:26.507Z,21.10
2018-08-03T05:18:54.754Z,21.10
2018-08-03T05:21:22.979Z,21.10
2018-08-03T05:23:51.186Z,21.10
2018-08-03T05:26:19.414Z,21.20
2018-08-03T05:28:47.611Z,21.10
2018-08-03T05:31:15.821Z,21.20
2018-08-03T05:33:44.017Z,21.30
2018-08-03T05:36:12.269Z,21.40
2018-08-03T05:38:40.437Z,21.50
2018-08-03T05:41:08.648Z,21.50
2018-08-03T05:43:36.842Z,21.50
2018-08-03T05:46:05.070Z,21.50
2018-08-03T05:48:33.282Z,21.60
2018-08-03T05:51:01.497Z,21.60
2018-08-03T05:53:29.702Z,21.60
2018-08-03T05:55:57.894Z,21.60
2018-08-03T05:58:26.116Z,21.60
2018-08-03T06:00:54.323Z,21.70
2018-08-03T06:03:22.545Z,21.80
2018-08-03T06:05:50.759Z,21.90
2018-08-03T06:08:19.027Z,22.00
2018-08-03T06:10:47.158Z,22.10
2018-08-03T06:13:15.363Z,22.20
2018-08-03T06:15:43.566Z,22.30
2018-08-03T06:18:11.774Z,22.30
2018-08-03T06:20:39.975Z,22.40
2018-08-03T06:23:08.190Z,22.50
2018-08-03T06:25:36.382Z,22.60
2018-08-03T06:28:04.638Z,22.70
2018-08-03T06:30:32.849Z,22.80
2018-08-03T06:33:01.080Z,22.90
2018-08-03T06:35:29.280Z,23.00
2018-08-03T06:37:57.516Z,23.10
2018-08-03T06:40:25.776Z,23.20
2018-08-03T06:42:53.999Z,23.20
2018-08-03T06:45:22.220Z,23.40
2018-08-03T06:47:50.451Z,23.50
2018-08-03T06:50:18.661Z,23.50
2018-08-03T06:52:46.873Z,23.70
2018-08-03T06:55:15.096Z,23.90
2018-08-03T06:57:43.318Z,24.00
2018-08-03T07:00:11.578Z,24.20
2018-08-03T07:02:39.854Z,24.40
2018-08-03T07:05:08.056Z,24.70
2018-08-03T07:07:36.275Z,24.90
2018-08-03T07:10:04.641Z,25.30
2018-08-03T07:12:32.875Z,25.60
2018-08-03T07:15:01.159Z,25.90
2018-08-03T07:17:29.348Z,26.00
2018-08-03T07:19:57.574Z,26.10
2018-08-03T07:22:25.860Z,26.30
2018-08-03T07:24:54.179Z,26.30
2018-08-03T07:27:22.419Z,26.40
2018-08-03T07:29:50.641Z,26.50
2018-08-03T07:32:18.826Z,26.60
2018-08-03T07:34:47.057Z,26.80
2018-08-03T07:37:15.360Z,26.90
2018-08-03T07:39:43.558Z,27.10
2018-08-03T07:42:11.766Z,27.20
2018-08-03T07:44:40.015Z,27.40
2018-08-03T07:47:08.386Z,27.60
2018-08-03T07:49:36.584Z,27.70
2018-08-03T07:52:04.815Z,27.90
2018-08-03T07:54:33.023Z,28.20
2018-08-03T07:57:01.223Z,28.50
2018-08-03T07:59:29.434Z,28.90
2018-08-03T08:01:57.622Z,29.30
2018-08-03T08:04:25.895Z,29.80
2018-08-03T08:06:54.077Z,30.40
2018-08-03T08:09:22.286Z,30.90
2018-08-03T08:11:50.512Z,31.40
2018-08-03T08:14:18.701Z,31.80
2018-08-03T08:16:46.915Z,32.20
2018-08-03T08:19:15.130Z,32.60
2018-08-03T08:21:43.325Z,32.90
2018-08-03T08:24:11.525Z,33.20
2018-08-03T08:26:39.730Z,33.40
2018-08-03T08:29:07.973Z,33.60
2018-08-03T08:31:36.252Z,33.70
2018-08-03T08:34:04.422Z,33.90
2018-08-03T08:36:32.629Z,34.20
2018-08-03T08:39:00.867Z,34.30
2018-08-03T08:41:29.096Z,34.40
2018-08-03T08:43:57.467Z,34.50
2018-08-03T08:46:25.545Z,34.70
2018-08-03T08:48:53.750Z,34.80
2018-08-03T08:51:21.970Z,34.80
2018-08-03T08:53:50.169Z,34.80
2018-08-03T08:56:18.389Z,35.00
2018-08-03T08:58:46.585Z,35.10
2018-08-03T09:01:14.815Z,35.10
2018-08-03T09:03:43.027Z,35.30
2018-08-03T09:06:11.255Z,35.30
2018-08-03T09:08:39.460Z,35.30
2018-08-03T09:11:08.252Z,35.30
2018-08-03T09:13:36.531Z,35.20
2018-08-03T09:16:04.753Z,35.30
2018-08-03T09:18:32.977Z,35.30
2018-08-03T09:21:01.175Z,35.00
2018-08-03T09:23:29.387Z,35.10
2018-08-03T09:25:57.609Z,35.10
2018-08-03T09:28:25.894Z,35.20
2018-08-03T09:30:54.125Z,35.30
2018-08-03T09:33:22.328Z,35.40
2018-08-03T09:35:50.554Z,35.40
2018-08-03T09:38:18.782Z,35.40
2018-08-03T09:40:47.012Z,35.60
2018-08-03T09:43:15.231Z,35.80
2018-08-03T09:45:43.458Z,35.90
2018-08-03T09:48:11.695Z,35.80
2018-08-03T09:50:39.903Z,35.90
2018-08-03T09:53:08.131Z,35.90
2018-08-03T09:55:36.355Z,35.80
2018-08-03T09:58:04.629Z,35.90
2018-08-03T10:00:39.319Z,36.10
2018-08-03T10:03:07.914Z,36.10
2018-08-03T10:05:36.150Z,35.90
2018-08-03T10:08:04.872Z,36.10
2018-08-03T10:10:33.582Z,36.20
2018-08-03T10:13:02.455Z,36.20
2018-08-03T10:15:31.181Z,36.40
2018-08-03T10:17:59.462Z,36.60
2018-08-03T10:20:28.205Z,36.50
2018-08-03T10:22:56.940Z,36.70
2018-08-03T10:25:25.167Z,36.70
2018-08-03T10:27:53.406Z,36.80
2018-08-03T10:30:22.291Z,36.90
2018-08-03T10:32:51.085Z,37.00
2018-08-03T10:35:19.607Z,37.30
2018-08-03T10:37:47.845Z,37.40
2018-08-03T10:40:16.065Z,37.50
2018-08-03T10:42:44.318Z,37.60
2018-08-03T10:45:12.525Z,37.60
2018-08-03T10:47:40.882Z,37.60
2018-08-03T10:50:09.177Z,37.70
2018-08-03T10:52:37.402Z,37.70
2018-08-03T10:55:05.623Z,37.90
2018-08-03T10:57:33.855Z,38.10
2018-08-03T11:00:02.104Z,38.20
2018-08-03T11:02:30.339Z,38.20
2018-08-03T11:04:58.568Z,38.40
2018-08-03T11:07:26.785Z,38.40
2018-08-03T11:09:55.035Z,38.50
2018-08-03T11:12:23.267Z,38.50
2018-08-03T11:14:51.494Z,38.70
2018-08-03T11:17:19.720Z,38.80
2018-08-03T11:19:47.934Z,38.80
2018-08-03T11:22:16.195Z,38.70
2018-08-03T11:24:44.436Z,38.60
2018-08-03T11:27:12.673Z,38.00
2018-08-03T11:29:40.929Z,37.70
2018-08-03T11:32:09.135Z,37.30
2018-08-03T11:34:37.347Z,36.80
2018-08-03T11:37:05.881Z,36.70
2018-08-03T11:39:34.093Z,36.80
2018-08-03T11:42:02.338Z,36.60
2018-08-03T11:44:30.546Z,36.60
2018-08-03T11:46:59.195Z,36.70
2018-08-03T11:49:27.412Z,36.80
2018-08-03T11:51:55.653Z,36.80
2018-08-03T11:54:23.869Z,36.80
2018-08-03T11:56:52.096Z,36.70
2018-08-03T11:59:20.340Z,36.80
2018-08-03T12:01:48.762Z,36.80
2018-08-03T12:04:16.923Z,36.80
2018-08-03T12:06:45.147Z,36.80
2018-08-03T12:09:13.371Z,36.70
2018-08-03T12:11:41.575Z,36.70
2018-08-03T12:14:09.806Z,36.50
2018-08-03T12:16:38.021Z,36.40
2018-08-03T12:19:06.267Z,36.30
2018-08-03T12:21:34.497Z,36.10
2018-08-03T12:24:02.734Z,36.10
2018-08-03T12:26:30.943Z,36.10
2018-08-03T12:28:59.148Z,36.20
2018-08-03T12:31:27.414Z,36.10
2018-08-03T12:33:55.633Z,36.10
2018-08-03T12:36:23.818Z,36.00
2018-08-03T12:38:52.002Z,36.00
2018-08-03T12:41:20.242Z,36.00
2018-08-03T12:43:48.460Z,35.90
2018-08-03T12:46:16.649Z,35.80
2018-08-03T12:48:44.845Z,35.70
2018-08-03T12:51:13.053Z,35.70
2018-08-03T12:53:41.265Z,35.80
2018-08-03T12:56:09.459Z,35.70
2018-08-03T12:58:37.677Z,35.70
2018-08-03T13:01:05.950Z,35.60
2018-08-03T13:03:34.204Z,35.60
2018-08-03T13:06:02.410Z,35.60
2018-08-03T13:08:30.765Z,35.50
2018-08-03T13:10:58.855Z,35.60
2018-08-03T13:13:27.078Z,35.60
2018-08-03T13:15:55.291Z,35.60
2018-08-03T13:18:23.490Z,35.60
2018-08-03T13:20:51.681Z,35.60
2018-08-03T13:23:19.893Z,35.50
2018-08-03T13:25:48.084Z,35.50
2018-08-03T13:28:16.302Z,35.50
2018-08-03T13:30:44.505Z,35.60
2018-08-03T13:33:12.696Z,35.60
2018-08-03T13:35:40.903Z,35.50
2018-08-03T13:38:09.099Z,35.50
2018-08-03T13:40:37.297Z,35.40
2018-08-03T13:43:05.490Z,35.40
2018-08-03T13:45:33.698Z,35.30
2018-08-03T13:48:01.904Z,35.10
2018-08-03T13:50:30.123Z,35.10
2018-08-03T13:52:58.323Z,35.00
2018-08-03T13:55:26.518Z,34.90
2018-08-03T13:57:54.749Z,34.80
2018-08-03T14:00:22.954Z,34.70
2018-08-03T14:02:51.154Z,34.80
2018-08-03T14:05:19.365Z,34.80
2018-08-03T14:07:47.554Z,34.80
2018-08-03T14:10:15.762Z,34.90
2018-08-03T14:12:43.942Z,35.00
2018-08-03T14:15:12.144Z,35.10
2018-08-03T14:17:40.333Z,35.10
2018-08-03T14:20:08.564Z,35.10
2018-08-03T14:22:36.817Z,35.00
2018-08-03T14:25:05.035Z,35.00
2018-08-03T14:27:33.513Z,35.00
2018-08-03T14:30:01.800Z,34.80
2018-08-03T14:32:29.978Z,34.60
2018-08-03T14:34:58.200Z,34.60
2018-08-03T14:37:26.419Z,34.50
2018-08-03T14:39:54.631Z,34.30
2018-08-03T14:42:22.841Z,34.20
2018-08-03T14:44:51.061Z,34.20
2018-08-03T14:47:19.283Z,34.10
2018-08-03T14:49:47.514Z,34.10
2018-08-03T14:52:15.740Z,34.00
2018-08-03T14:54:43.957Z,34.00
2018-08-03T14:57:12.166Z,34.10
2018-08-03T14:59:40.397Z,34.20
2018-08-03T15:02:08.598Z,34.20
2018-08-03T15:04:36.839Z,34.30
2018-08-03T15:07:05.167Z,34.30
2018-08-03T15:09:33.454Z,34.30
2018-08-03T15:12:01.658Z,34.30
2018-08-03T15:14:29.998Z,34.30
2018-08-03T15:16:58.217Z,34.30
2018-08-03T15:19:26.466Z,34.30
2018-08-03T15:21:54.676Z,34.30
2018-08-03T15:24:22.895Z,34.30
2018-08-03T15:26:51.236Z,34.30
2018-08-03T15:29:19.463Z,34.30
2018-08-03T15:31:47.671Z,34.30
2018-08-03T15:34:15.875Z,34.20
2018-08-03T15:36:44.793Z,34.20
2018-08-03T15:39:13.126Z,34.20
2018-08-03T15:41:41.331Z,34.30
2018-08-03T15:44:09.558Z,34.30
2018-08-03T15:46:37.910Z,34.40
2018-08-03T15:49:06.155Z,34.40
2018-08-03T15:51:34.360Z,34.50
2018-08-03T15:54:02.730Z,34.50
2018-08-03T15:56:32.954Z,34.50
2018-08-03T15:59:01.209Z,34.40
2018-08-03T16:01:29.430Z,34.40
2018-08-03T16:03:57.625Z,34.40
2018-08-03T16:06:27.328Z,34.30
2018-08-03T16:08:55.533Z,34.30
2018-08-03T16:11:23.737Z,34.30
2018-08-03T16:13:51.948Z,34.00
2018-08-03T16:16:20.343Z,33.10
2018-08-03T16:18:48.544Z,32.20
2018-08-03T16:21:16.822Z,31.00
2018-08-03T16:23:45.052Z,30.40
2018-08-03T16:26:13.272Z,29.60
2018-08-03T16:28:41.533Z,29.30
2018-08-03T16:31:09.750Z,28.90
2018-08-03T16:33:37.972Z,28.70
2018-08-03T16:36:06.206Z,28.40
2018-08-03T16:38:34.476Z,28.30
2018-08-03T16:41:02.727Z,28.30
2018-08-03T16:43:30.919Z,28.10
2018-08-03T16:45:59.156Z,28.20
2018-08-03T16:48:27.449Z,28.50
2018-08-03T16:50:55.675Z,28.50
2018-08-03T16:53:23.872Z,28.60
2018-08-03T16:55:52.333Z,28.60
2018-08-03T16:58:20.574Z,28.60
2018-08-03T17:00:48.784Z,28.40
2018-08-03T17:03:16.979Z,28.20
2018-08-03T17:05:45.177Z,28.20
2018-08-03T17:08:13.378Z,28.10
2018-08-03T17:10:41.574Z,27.90
2018-08-03T17:13:09.852Z,27.90
2018-08-03T17:15:38.047Z,27.80
2018-08-03T17:18:06.236Z,27.80
2018-08-03T17:20:34.456Z,27.70
2018-08-03T17:23:02.780Z,27.80
2018-08-03T17:25:30.976Z,27.80
2018-08-03T17:27:59.239Z,27.80
2018-08-03T17:30:27.409Z,27.90
2018-08-03T17:32:55.620Z,28.00
2018-08-03T17:35:23.843Z,28.00
2018-08-03T17:37:52.063Z,28.00
2018-08-03T17:40:20.293Z,28.00
2018-08-03T17:42:48.544Z,28.00
2018-08-03T17:45:16.711Z,28.00
2018-08-03T17:47:44.945Z,28.00
2018-08-03T17:50:13.156Z,28.00
2018-08-03T17:52:41.365Z,28.00
2018-08-03T17:55:09.547Z,27.90
2018-08-03T17:57:38.048Z,27.90
2018-08-03T18:00:06.716Z,27.90
2018-08-03T18:02:34.913Z,27.90
2018-08-03T18:05:03.149Z,27.90
2018-08-03T18:07:31.347Z,27.80
2018-08-03T18:09:59.543Z,27.70
2018-08-03T18:12:27.818Z,27.80
2018-08-03T18:14:56.024Z,27.70
2018-08-03T18:17:24.232Z,27.60
2018-08-03T18:19:52.443Z,27.50
2018-08-03T18:22:20.659Z,27.40
2018-08-03T18:24:48.877Z,27.30
2018-08-03T18:27:17.125Z,27.30
2018-08-03T18:29:45.367Z,27.40
2018-08-03T18:32:13.563Z,27.40
2018-08-03T18:34:41.795Z,27.30
2018-08-03T18:37:09.992Z,27.20
2018-08-03T18:39:38.238Z,27.10
2018-08-03T18:42:06.459Z,27.10
2018-08-03T18:44:34.708Z,27.10
2018-08-03T18:47:02.911Z,27.10
2018-08-03T18:49:31.132Z,27.00
2018-08-03T18:51:59.324Z,26.90
2018-08-03T18:54:27.518Z,26.90
2018-08-03T18:56:55.710Z,26.90
2018-08-03T18:59:23.914Z,26.80
2018-08-03T19:01:52.163Z,26.70
2018-08-03T19:04:20.376Z,26.70
2018-08-03T19:06:48.570Z,26.60
2018-08-03T19:09:16.780Z,26.60
2018-08-03T19:11:44.975Z,26.50
2018-08-03T19:14:13.192Z,26.40
2018-08-03T19:16:41.469Z,26.30
2018-08-03T19:19:09.693Z,26.40
2018-08-03T19:21:38.148Z,26.40
2018-08-03T19:24:06.609Z,26.40
2018-08-03T19:26:34.814Z,26.30
2018-08-03T19:29:03.045Z,26.10
2018-08-03T19:31:31.255Z,26.00
2018-08-03T19:33:59.465Z,26.00
2018-08-03T19:36:27.664Z,26.00
2018-08-03T19:38:55.877Z,26.00
2018-08-03T19:41:24.085Z,26.00
2018-08-03T19:43:52.501Z,26.00
2018-08-03T19:46:20.732Z,25.90
2018-08-03T19:48:48.952Z,25.80
2018-08-03T19:51:17.244Z,25.80
2018-08-03T19:53:45.448Z,25.70
2018-08-03T19:56:13.646Z,25.80
2018-08-03T19:58:42.001Z,25.80
2018-08-03T20:01:10.184Z,25.70
2018-08-03T20:03:38.769Z,25.60
2018-08-03T20:06:06.981Z,25.60
2018-08-03T20:08:35.361Z,25.60
2018-08-03T20:11:03.562Z,25.60
2018-08-03T20:13:31.893Z,25.60
2018-08-03T20:16:00.287Z,25.60
2018-08-03T20:18:28.499Z,25.60
2018-08-03T20:20:56.725Z,25.50
2018-08-03T20:23:24.959Z,25.40
2018-08-03T20:25:53.226Z,25.40
2018-08-03T20:28:21.490Z,25.40
2018-08-03T20:30:49.694Z,25.30
2018-08-03T20:33:18.104Z,25.30
2018-08-03T20:35:46.330Z,25.20
2018-08-03T20:38:14.596Z,25.30
2018-08-03T20:40:42.912Z,25.20
2018-08-03T20:43:11.237Z,25.30
2018-08-03T20:45:39.547Z,25.30
2018-08-03T20:48:07.866Z,25.20
2018-08-03T20:50:36.099Z,25.20
2018-08-03T20:53:04.327Z,25.10
2018-08-03T20:55:32.570Z,24.90
2018-08-03T20:58:01.103Z,24.90
2018-08-03T21:00:29.360Z,24.80
2018-08-03T21:02:57.582Z,24.70
2018-08-03T21:05:25.810Z,24.70
2018-08-03T21:07:54.019Z,24.70
2018-08-03T21:10:22.240Z,24.60
2018-08-03T21:12:50.471Z,24.60
2018-08-03T21:15:18.679Z,24.50
2018-08-03T21:17:46.889Z,24.40
2018-08-03T21:20:15.114Z,24.50
2018-08-03T21:22:43.324Z,24.40
2018-08-03T21:25:11.561Z,24.30
2018-08-03T21:27:39.771Z,24.30
2018-08-03T21:30:09.148Z,24.20
2018-08-03T21:32:37.390Z,24.20
2018-08-03T21:35:09.038Z,24.20
2018-08-03T21:37:37.240Z,24.10
2018-08-03T21:40:05.773Z,24.00
2018-08-03T21:42:34.176Z,23.90
2018-08-03T21:45:02.420Z,24.00
2018-08-03T21:47:30.646Z,23.90
2018-08-03T21:49:59.710Z,23.90
2018-08-03T21:52:27.934Z,23.90
2018-08-03T21:54:56.121Z,23.80
2018-08-03T21:57:24.350Z,23.80
2018-08-03T21:59:52.545Z,23.80
2018-08-03T22:02:20.753Z,23.80
2018-08-03T22:04:48.941Z,23.80
2018-08-03T22:07:17.134Z,23.80
2018-08-03T22:09:45.333Z,23.80
2018-08-03T22:12:13.590Z,23.70
2018-08-03T22:14:41.740Z,23.70
2018-08-03T22:17:09.979Z,23.70
2018-08-03T22:19:38.170Z,23.70
2018-08-03T22:22:06.357Z,23.80
2018-08-03T22:24:34.698Z,23.80
2018-08-03T22:27:02.874Z,23.70
2018-08-03T22:29:31.097Z,23.60
2018-08-03T22:31:59.325Z,23.50
2018-08-03T22:34:27.529Z,23.50
2018-08-03T22:36:55.772Z,23.60
2018-08-03T22:39:23.998Z,23.60
2018-08-03T22:41:52.230Z,23.50
2018-08-03T22:44:20.431Z,23.50
2018-08-03T22:46:48.633Z,23.40
2018-08-03T22:49:16.836Z,23.40
2018-08-03T22:51:45.064Z,23.30
2018-08-03T22:54:13.249Z,23.40
2018-08-03T22:56:41.474Z,23.40
2018-08-03T22:59:09.673Z,23.30
2018-08-03T23:01:37.870Z,23.30
2018-08-03T23:04:06.089Z,23.30
2018-08-03T23:06:34.301Z,23.30
2018-08-03T23:09:02.494Z,23.30
2018-08-03T23:11:30.677Z,23.40
2018-08-03T23:13:58.914Z,23.40
2018-08-03T23:16:27.098Z,23.30
2018-08-03T23:18:55.301Z,23.30
2018-08-03T23:21:23.484Z,23.20
2018-08-03T23:23:51.688Z,23.20
2018-08-03T23:26:19.882Z,23.20
2018-08-03T23:28:48.086Z,23.20
2018-08-03T23:31:16.282Z,23.20
2018-08-03T23:33:44.484Z,23.20
2018-08-03T23:36:12.677Z,23.10
2018-08-03T23:38:40.880Z,23.00
2018-08-03T23:41:09.070Z,23.00
2018-08-03T23:43:37.294Z,23.10
2018-08-03T23:46:05.527Z,23.10
2018-08-03T23:48:33.732Z,23.10
2018-08-03T23:51:01.931Z,23.10
2018-08-03T23:53:30.134Z,23.00
2018-08-03T23:55:58.338Z,23.00
2018-08-03T23:58:26.538Z,22.80
